createdAt,value
2022-10-19T00:03:01.777Z,99554.47
2022-10-19T00:06:27.460Z,99543.78
2022-10-19T00:09:39.846Z,99552.80
2022-10-19T00:12:51.524Z,99550.82
2022-10-19T00:16:04.240Z,99545.48
2022-10-19T00:19:20.872Z,99549.13
2022-10-19T00:22:32.721Z,99550.94
2022-10-19T00:25:44.949Z,99543.78
2022-10-19T00:29:00.781Z,99548.58
2022-10-19T00:32:12.985Z,99541.30
2022-10-19T00:35:24.966Z,99546.64
2022-10-19T00:38:36.701Z,99554.50
2022-10-19T00:41:50.318Z,99554.08
2022-10-19T00:45:21.332Z,99551.68
2022-10-19T00:48:36.958Z,99550.59
2022-10-19T00:51:51.536Z,99549.05
2022-10-19T00:55:04.935Z,99552.56
2022-10-19T00:58:17.153Z,99542.16
2022-10-19T01:01:32.838Z,99541.61
2022-10-19T01:04:49.027Z,99532.91
2022-10-19T01:08:01.760Z,99527.02
2022-10-19T01:11:34.310Z,99531.55
2022-10-19T01:14:54.698Z,99523.69
2022-10-19T01:18:15.933Z,99522.83
2022-10-19T01:21:34.422Z,99517.50
2022-10-19T01:25:06.225Z,99517.77
2022-10-19T01:28:35.649Z,99520.74
2022-10-19T01:31:53.156Z,99511.03
2022-10-19T01:35:10.015Z,99507.39
2022-10-19T01:38:33.288Z,99503.17
2022-10-19T01:41:51.815Z,99500.66
2022-10-19T01:45:08.928Z,99498.95
2022-10-19T01:48:25.446Z,99489.44
2022-10-19T01:51:42.101Z,99483.28
2022-10-19T01:54:58.144Z,99491.44
2022-10-19T01:58:13.988Z,99484.25
2022-10-19T02:01:29.028Z,99491.58
2022-10-19T02:04:41.645Z,99497.61
2022-10-19T02:07:59.195Z,99496.22
2022-10-19T02:11:12.052Z,99497.91
2022-10-19T02:14:28.461Z,99489.89
2022-10-19T02:17:46.413Z,99498.73
2022-10-19T02:20:58.385Z,99491.58
2022-10-19T02:24:10.590Z,99487.52
2022-10-19T02:27:23.018Z,99484.99
2022-10-19T02:30:34.808Z,99490.48
2022-10-19T02:33:46.952Z,99487.23
2022-10-19T02:36:59.435Z,99478.11
2022-10-19T02:40:14.599Z,99472.64
2022-10-19T02:43:28.044Z,99474.77
2022-10-19T02:46:44.940Z,99471.83
2022-10-19T02:49:57.779Z,99470.27
2022-10-19T02:53:09.353Z,99469.84
2022-10-19T02:56:20.959Z,99471.81
2022-10-19T02:59:35.877Z,99471.81
2022-10-19T03:02:48.204Z,99470.99
2022-10-19T03:06:01.000Z,99472.11
2022-10-19T03:09:13.332Z,99462.29
2022-10-19T03:12:24.910Z,99464.22
2022-10-19T03:15:36.616Z,99462.29
2022-10-19T03:18:48.472Z,99468.70
2022-10-19T03:22:00.208Z,99473.19
2022-10-19T03:25:13.288Z,99471.09
2022-10-19T03:28:24.960Z,99475.45
2022-10-19T03:31:36.775Z,99466.61
2022-10-19T03:34:48.338Z,99463.39
2022-10-19T03:37:59.903Z,99462.53
2022-10-19T03:41:15.200Z,99467.45
2022-10-19T03:44:27.214Z,99467.57
2022-10-19T03:47:38.894Z,99469.83
2022-10-19T03:50:50.489Z,99467.30
2022-10-19T03:54:06.193Z,99466.61
2022-10-19T03:57:18.516Z,99467.02
2022-10-19T04:00:30.446Z,99470.39
2022-10-19T04:03:42.079Z,99463.09
2022-10-19T04:06:55.378Z,99453.83
2022-10-19T04:10:07.119Z,99452.97
2022-10-19T04:13:18.708Z,99445.97
2022-10-19T04:16:32.614Z,99447.94
2022-10-19T04:19:44.291Z,99447.09
2022-10-19T04:22:57.833Z,99445.54
2022-10-19T04:26:11.754Z,99436.73
2022-10-19T04:29:29.482Z,99443.58
2022-10-19T04:32:39.791Z,99440.20
2022-10-19T04:35:51.294Z,99444.84
2022-10-19T04:39:02.899Z,99438.69
2022-10-19T04:42:14.458Z,99449.47
2022-10-19T04:45:25.998Z,99445.55
2022-10-19T04:48:37.997Z,99452.03
2022-10-19T04:51:49.575Z,99447.96
2022-10-19T04:55:01.195Z,99441.22
2022-10-19T04:58:12.836Z,99438.41
2022-10-19T05:01:26.699Z,99436.71
2022-10-19T05:04:41.817Z,99437.86
2022-10-19T05:07:54.345Z,99442.05
2022-10-19T05:11:11.882Z,99443.19
2022-10-19T05:14:23.418Z,99442.75
2022-10-19T05:17:37.471Z,99448.38
2022-10-19T05:20:49.164Z,99440.08
2022-10-19T05:24:02.193Z,99445.16
2022-10-19T05:27:14.045Z,99447.81
2022-10-19T05:30:26.307Z,99449.48
2022-10-19T05:33:38.144Z,99456.37
2022-10-19T05:36:49.738Z,99442.75
2022-10-19T05:40:01.681Z,99443.75
2022-10-19T05:43:14.560Z,99448.38
2022-10-19T05:46:26.421Z,99447.52
2022-10-19T05:49:38.281Z,99459.73
2022-10-19T05:52:49.920Z,99456.92
2022-10-19T05:56:01.718Z,99456.07
2022-10-19T05:59:17.928Z,99461.41
2022-10-19T06:02:29.725Z,99467.59
2022-10-19T06:05:43.562Z,99471.80
2022-10-19T06:08:55.954Z,99469.55
2022-10-19T06:12:07.756Z,99474.88
2022-10-19T06:15:19.725Z,99478.54
2022-10-19T06:18:31.377Z,99492.13
2022-10-19T06:21:45.678Z,99499.71
2022-10-19T06:24:57.351Z,99503.48
2022-10-19T06:28:09.714Z,99493.13
2022-10-19T06:31:21.939Z,99496.76
2022-10-19T06:34:33.558Z,99494.23
2022-10-19T06:37:45.242Z,99484.14
2022-10-19T06:40:56.957Z,99495.92
2022-10-19T06:44:09.681Z,99494.78
2022-10-19T06:47:21.324Z,99489.13
2022-10-19T06:50:32.921Z,99501.20
2022-10-19T06:53:44.592Z,99495.87
2022-10-19T06:56:56.092Z,99502.33
2022-10-19T07:00:08.569Z,99504.05
2022-10-19T07:03:20.362Z,99506.05
2022-10-19T07:06:34.252Z,99508.67
2022-10-19T07:09:45.820Z,99520.36
2022-10-19T07:12:57.590Z,99517.09
2022-10-19T07:16:17.592Z,99506.50
2022-10-19T07:19:29.452Z,99514.58
2022-10-19T07:22:41.128Z,99520.62
2022-10-19T07:25:53.892Z,99525.19
2022-10-19T07:29:05.838Z,99527.80
2022-10-19T07:32:17.538Z,99533.75
2022-10-19T07:35:29.233Z,99527.87
2022-10-19T07:38:41.727Z,99507.94
2022-10-19T07:41:53.713Z,99523.11
2022-10-19T07:45:05.248Z,99517.82
2022-10-19T07:48:16.968Z,99526.27
2022-10-19T07:51:30.230Z,99532.16
2022-10-19T07:54:42.008Z,99538.63
2022-10-19T07:57:56.133Z,99532.19
2022-10-19T08:01:13.539Z,99522.05
2022-10-19T08:07:41.776Z,99520.81
2022-10-19T08:10:53.310Z,99521.78
2022-10-19T08:14:06.664Z,99526.55
2022-10-19T08:17:20.563Z,99509.66
2022-10-19T08:20:32.517Z,99511.89
2022-10-19T08:23:44.149Z,99506.56
2022-10-19T08:26:56.031Z,99511.68
2022-10-19T08:30:08.048Z,99507.28
2022-10-19T08:33:19.730Z,99510.97
2022-10-19T08:36:32.531Z,99511.47
2022-10-19T08:39:44.323Z,99513.38
2022-10-19T08:43:04.722Z,99504.55
2022-10-19T08:46:22.671Z,99519.94
2022-10-19T08:49:37.597Z,99513.83
2022-10-19T08:52:52.087Z,99521.98
2022-10-19T08:56:49.793Z,99519.02
2022-10-19T08:59:56.449Z,99508.77
2022-10-19T09:03:23.139Z,99505.74
2022-10-19T09:06:36.358Z,99503.13
2022-10-19T09:09:53.531Z,99500.19
2022-10-19T09:13:06.852Z,99506.23
2022-10-19T09:16:22.473Z,99508.79
2022-10-19T09:22:54.517Z,99521.61
2022-10-19T09:26:09.341Z,99524.84
2022-10-19T09:29:27.882Z,99524.86
2022-10-19T09:32:42.442Z,99525.72
2022-10-19T09:35:55.237Z,99528.38
2022-10-19T09:39:09.576Z,99520.23
2022-10-19T09:42:29.475Z,99522.88
2022-10-19T09:45:47.422Z,99519.38
2022-10-19T09:48:59.911Z,99518.94
2022-10-19T09:52:13.793Z,99524.16
2022-10-19T09:55:45.749Z,99528.63
2022-10-19T09:59:00.016Z,99534.36
2022-10-19T10:02:26.185Z,99528.59
2022-10-19T10:05:43.728Z,99528.33
2022-10-19T10:08:59.802Z,99524.23
2022-10-19T10:12:13.674Z,99520.41
2022-10-19T10:15:46.330Z,99514.17
2022-10-19T10:19:05.038Z,99507.78
2022-10-19T10:22:32.059Z,99500.81
2022-10-19T10:25:44.271Z,99503.13
2022-10-19T10:35:33.032Z,99482.13
2022-10-19T10:38:47.855Z,99506.09
2022-10-19T10:42:00.121Z,99518.50
2022-10-19T10:45:20.001Z,99521.38
2022-10-19T10:48:37.644Z,99521.02
2022-10-19T10:51:54.434Z,99515.25
2022-10-19T10:55:11.371Z,99521.14
2022-10-19T10:58:29.618Z,99521.98
2022-10-19T11:01:45.734Z,99511.70
2022-10-19T11:05:03.339Z,99514.06
2022-10-19T11:08:25.215Z,99501.98
2022-10-19T11:11:43.130Z,99506.05
2022-10-19T11:15:00.869Z,99498.58
2022-10-19T11:18:23.761Z,99504.60
2022-10-19T11:21:40.964Z,99496.28
2022-10-19T11:25:08.837Z,99507.86
2022-10-19T11:28:38.911Z,99510.03
2022-10-19T11:31:55.110Z,99516.67
2022-10-19T11:38:22.040Z,99511.06
2022-10-19T11:41:40.085Z,99517.56
2022-10-19T11:45:03.582Z,99513.92
2022-10-19T11:48:52.918Z,99519.66
2022-10-19T11:52:10.825Z,99508.02
2022-10-19T11:55:32.765Z,99508.84
2022-10-19T11:58:55.084Z,99516.70
2022-10-19T12:02:16.618Z,99510.23
2022-10-19T12:05:33.743Z,99503.48
2022-10-19T12:09:00.840Z,99495.33
2022-10-19T12:12:37.634Z,99487.83
2022-10-19T12:15:54.114Z,99483.60
2022-10-19T12:19:08.871Z,99476.60
2022-10-19T12:22:25.628Z,99483.77
2022-10-19T12:25:38.408Z,99484.52
2022-10-19T12:28:56.734Z,99477.25
2022-10-19T12:32:10.837Z,99476.24
2022-10-19T12:35:40.013Z,99469.78
2022-10-19T12:39:00.939Z,99474.39
2022-10-19T12:42:20.187Z,99489.68
2022-10-19T12:45:37.189Z,99482.09
2022-10-19T12:48:47.103Z,99486.58
2022-10-19T12:52:00.242Z,99480.31
2022-10-19T12:55:34.881Z,99486.80
2022-10-19T12:58:57.631Z,99481.60
2022-10-19T13:02:20.812Z,99486.55
2022-10-19T13:05:34.869Z,99491.18
2022-10-19T13:08:50.470Z,99486.53
2022-10-19T13:12:47.787Z,99496.09
2022-10-19T13:16:00.587Z,99490.87
2022-10-19T13:19:27.868Z,99495.09
2022-10-19T13:22:39.570Z,99495.38
2022-10-19T13:25:51.678Z,99490.46
2022-10-19T13:29:03.825Z,99487.23
2022-10-19T13:32:47.464Z,99486.95
2022-10-19T13:36:13.330Z,99488.80
2022-10-19T13:39:25.298Z,99484.02
2022-10-19T13:42:37.967Z,99488.09
2022-10-19T13:45:50.179Z,99497.90
2022-10-19T13:49:30.276Z,99496.34
2022-10-19T13:53:05.508Z,99497.90
2022-10-19T13:56:49.758Z,99497.34
2022-10-19T14:00:28.130Z,99497.46
2022-10-19T14:04:16.277Z,99501.42
2022-10-19T14:07:33.911Z,99495.64
2022-10-19T14:11:00.774Z,99496.20
2022-10-19T14:14:23.123Z,99498.61
2022-10-19T14:17:37.683Z,99487.50
2022-10-19T14:21:05.212Z,99479.36
2022-10-19T14:24:36.148Z,99491.98
2022-10-19T14:27:48.581Z,99485.80
2022-10-19T14:31:06.514Z,99482.31
2022-10-19T14:34:20.087Z,99476.84
2022-10-19T14:37:33.924Z,99492.13
2022-10-19T14:40:47.453Z,99483.13
2022-10-19T14:43:59.752Z,99490.86
2022-10-19T14:47:27.468Z,99495.05
2022-10-19T14:50:47.933Z,99491.56
2022-10-19T14:54:04.358Z,99493.52
2022-10-19T14:57:23.272Z,99495.90
2022-10-19T15:00:38.121Z,99488.05
2022-10-19T15:03:53.052Z,99488.04
2022-10-19T15:07:08.879Z,99493.77
2022-10-19T15:10:31.289Z,99489.14
2022-10-19T15:13:48.116Z,99497.98
2022-10-19T15:17:03.921Z,99496.98
2022-10-19T15:20:30.311Z,99494.17
2022-10-19T15:23:47.146Z,99491.09
2022-10-19T15:27:09.201Z,99503.41
2022-10-19T15:30:30.738Z,99507.61
2022-10-19T15:33:49.573Z,99513.80
2022-10-19T15:37:08.415Z,99517.02
2022-10-19T15:40:29.848Z,99519.94
2022-10-19T15:43:51.482Z,99519.23
2022-10-19T15:47:27.342Z,99523.17
2022-10-19T15:50:45.134Z,99526.09
2022-10-19T15:53:59.151Z,99528.33
2022-10-19T15:57:33.218Z,99533.38
2022-10-19T16:00:46.809Z,99532.66
2022-10-19T16:03:59.565Z,99537.28
2022-10-19T16:07:12.798Z,99537.81
2022-10-19T16:10:28.246Z,99540.05
2022-10-19T16:13:39.970Z,99540.62
2022-10-19T16:16:59.586Z,99547.89
2022-10-19T16:20:10.442Z,99548.74
2022-10-19T16:23:22.075Z,99558.69
2022-10-19T16:26:34.195Z,99574.05
2022-10-19T16:29:46.495Z,99573.34
2022-10-19T16:32:58.095Z,99572.38
2022-10-19T16:36:17.807Z,99574.47
2022-10-19T16:39:29.565Z,99572.77
2022-10-19T16:42:41.340Z,99570.39
2022-10-19T16:45:53.138Z,99569.39
2022-10-19T16:49:05.063Z,99577.24
2022-10-19T16:52:20.375Z,99575.30
2022-10-19T16:55:34.796Z,99580.62
2022-10-19T16:58:47.559Z,99594.64
2022-10-19T17:01:59.463Z,99598.24
2022-10-19T17:05:12.287Z,99606.37
2022-10-19T17:08:36.622Z,99610.50
2022-10-19T17:11:49.270Z,99609.93
2022-10-19T17:23:00.617Z,99612.16
2022-10-19T17:26:14.426Z,99615.09
2022-10-19T17:29:27.677Z,99617.75
2022-10-19T17:32:42.438Z,99621.75
2022-10-19T17:35:54.788Z,99625.39
2022-10-19T17:39:09.103Z,99638.83
2022-10-19T17:42:20.901Z,99639.65
2022-10-19T17:45:32.842Z,99642.44
2022-10-19T17:48:46.890Z,99648.03
2022-10-19T17:51:59.653Z,99664.52
2022-10-19T17:55:13.697Z,99660.77
2022-10-19T18:05:16.386Z,99671.23
2022-10-19T18:08:28.543Z,99673.75
2022-10-19T18:11:43.542Z,99678.25
2022-10-19T18:14:55.429Z,99680.28
2022-10-19T18:18:07.617Z,99685.02
2022-10-19T18:21:24.544Z,99685.14
2022-10-19T18:24:36.651Z,99675.72
2022-10-19T18:27:48.402Z,99685.63
2022-10-19T18:31:00.205Z,99689.86
2022-10-19T18:34:16.908Z,99675.13
2022-10-19T18:37:29.182Z,99677.92
2022-10-19T18:40:43.520Z,99691.43
2022-10-19T18:44:01.421Z,99685.03
2022-10-19T18:47:13.589Z,99700.39
2022-10-19T18:50:25.449Z,99705.92
2022-10-19T18:53:38.252Z,99701.59
2022-10-19T18:56:49.960Z,99708.58
2022-10-19T19:00:01.666Z,99708.84
2022-10-19T19:03:14.438Z,99708.00
2022-10-19T19:06:29.294Z,99708.22
2022-10-19T19:09:42.141Z,99710.50
2022-10-19T19:12:57.033Z,99723.44
2022-10-19T19:16:09.866Z,99727.39
2022-10-19T19:19:24.490Z,99724.38
2022-10-19T19:22:36.994Z,99730.03
2022-10-19T19:25:49.079Z,99735.81
2022-10-19T19:29:01.476Z,99728.31
2022-10-19T19:32:13.641Z,99727.84
2022-10-19T19:35:25.358Z,99728.27
2022-10-19T19:38:38.302Z,99744.41
2022-10-19T19:41:50.183Z,99746.79
2022-10-19T19:45:02.209Z,99747.52
2022-10-19T19:48:16.128Z,99758.05
2022-10-19T19:51:28.430Z,99743.67
2022-10-19T19:54:40.683Z,99759.38
2022-10-19T19:57:54.423Z,99749.59
2022-10-19T20:01:07.362Z,99759.27
2022-10-19T20:04:20.061Z,99764.45
2022-10-19T20:07:31.801Z,99767.09
2022-10-19T20:10:47.724Z,99765.30
2022-10-19T20:14:00.241Z,99764.32
2022-10-19T20:17:11.937Z,99767.66
2022-10-19T20:20:23.970Z,99759.69
2022-10-19T20:23:36.786Z,99767.09
2022-10-19T20:26:48.675Z,99769.48
2022-10-19T20:30:01.786Z,99764.54
2022-10-19T20:33:13.579Z,99776.34
2022-10-19T20:36:27.975Z,99778.27
2022-10-19T20:39:41.395Z,99780.84
2022-10-19T20:42:53.070Z,99782.64
2022-10-19T20:46:12.551Z,99786.89
2022-10-19T20:49:24.338Z,99784.02
2022-10-19T20:52:36.354Z,99783.78
2022-10-19T20:55:48.462Z,99782.84
2022-10-19T20:59:04.724Z,99785.94
2022-10-19T21:02:18.548Z,99788.07
2022-10-19T21:05:30.244Z,99799.38
2022-10-19T21:08:43.324Z,99799.20
2022-10-19T21:11:56.781Z,99798.67
2022-10-19T21:15:08.775Z,99806.13
2022-10-19T21:18:23.369Z,99803.67
2022-10-19T21:21:37.488Z,99798.81
2022-10-19T21:24:49.331Z,99799.05
2022-10-19T21:28:01.150Z,99805.53
2022-10-19T21:31:14.400Z,99807.32
2022-10-19T21:34:29.488Z,99807.51
2022-10-19T21:37:41.141Z,99808.13
2022-10-19T21:40:52.906Z,99807.92
2022-10-19T21:44:04.921Z,99804.41
2022-10-19T21:47:16.536Z,99801.77
2022-10-19T21:50:28.237Z,99800.82
2022-10-19T21:53:39.940Z,99806.33
2022-10-19T21:56:53.147Z,99798.61
2022-10-19T22:00:05.042Z,99808.06
2022-10-19T22:03:18.579Z,99800.61
2022-10-19T22:06:30.847Z,99804.12
2022-10-19T22:09:42.614Z,99802.32
2022-10-19T22:12:54.315Z,99802.26
2022-10-19T22:16:13.261Z,99803.73
2022-10-19T22:19:26.298Z,99816.44
2022-10-19T22:22:38.248Z,99809.22
2022-10-19T22:25:50.434Z,99812.69
2022-10-19T22:29:03.240Z,99813.66
2022-10-19T22:32:14.947Z,99813.98
2022-10-19T22:35:26.704Z,99812.50
2022-10-19T22:38:38.915Z,99817.73
2022-10-19T22:42:57.281Z,99822.19
2022-10-19T22:46:21.006Z,99821.33
2022-10-19T22:49:33.150Z,99824.41
2022-10-19T22:52:44.946Z,99820.08
2022-10-19T22:55:57.231Z,99819.89
2022-10-19T22:59:12.906Z,99827.41
2022-10-19T23:02:24.766Z,99826.98
2022-10-19T23:05:36.584Z,99827.83
2022-10-19T23:08:48.571Z,99829.23
2022-10-19T23:12:00.384Z,99834.28
2022-10-19T23:15:14.748Z,99845.33
2022-10-19T23:18:26.603Z,99837.25
2022-10-19T23:21:38.368Z,99843.17
2022-10-19T23:24:50.087Z,99846.56
2022-10-19T23:28:01.781Z,99850.59
2022-10-19T23:31:16.496Z,99851.01
2022-10-19T23:34:28.378Z,99845.08
2022-10-19T23:37:41.088Z,99850.59
2022-10-19T23:40:53.197Z,99852.69
2022-10-19T23:44:04.738Z,99865.19
2022-10-19T23:47:16.274Z,99862.13
2022-10-19T23:50:27.929Z,99861.56
2022-10-19T23:53:42.712Z,99871.11
2022-10-19T23:56:54.354Z,99865.81
